createdAt,value
2018-07-31T00:04:54.516Z,3.90
2018-07-31T00:09:58.164Z,3.50
2018-07-31T00:15:01.624Z,3.55
2018-07-31T00:20:05.749Z,3.05
2018-07-31T00:25:09.281Z,3.90
2018-07-31T00:30:12.772Z,3.70
2018-07-31T00:35:16.378Z,3.77
2018-07-31T00:40:19.877Z,3.60
2018-07-31T00:45:23.559Z,3.50
2018-07-31T00:50:27.078Z,3.72
2018-07-31T00:55:30.533Z,3.25
2018-07-31T01:00:34.056Z,3.92
2018-07-31T01:05:38.033Z,3.83
2018-07-31T01:10:41.759Z,3.70
2018-07-31T01:15:45.373Z,3.95
2018-07-31T01:20:50.818Z,3.40
2018-07-31T01:25:54.345Z,3.50
2018-07-31T01:30:57.896Z,3.77
2018-07-31T01:36:01.887Z,3.75
2018-07-31T01:41:05.403Z,3.70
2018-07-31T01:46:09.025Z,3.47
2018-07-31T01:51:12.478Z,4.10
2018-07-31T01:56:15.962Z,4.03
2018-07-31T02:01:19.661Z,4.15
2018-07-31T02:06:26.529Z,3.80
2018-07-31T02:11:30.021Z,3.70
2018-07-31T02:16:33.498Z,3.77
2018-07-31T02:21:37.300Z,3.95
2018-07-31T02:26:41.037Z,4.20
2018-07-31T02:31:44.716Z,4.03
2018-07-31T02:36:48.198Z,3.80
2018-07-31T02:41:51.706Z,4.08
2018-07-31T02:46:55.371Z,3.90
2018-07-31T02:51:58.844Z,3.75
2018-07-31T02:57:02.534Z,4.40
2018-07-31T03:02:06.554Z,3.98
2018-07-31T03:07:10.043Z,3.90
2018-07-31T03:12:13.659Z,3.90
2018-07-31T03:17:17.418Z,4.60
2018-07-31T03:22:21.026Z,4.78
2018-07-31T03:27:25.675Z,4.00
2018-07-31T03:32:29.220Z,4.22
2018-07-31T03:37:32.762Z,4.33
2018-07-31T03:42:36.333Z,4.50
2018-07-31T03:47:39.813Z,4.47
2018-07-31T03:52:43.377Z,4.62
2018-07-31T03:57:47.095Z,4.37
2018-07-31T04:02:50.712Z,4.28
2018-07-31T04:07:54.229Z,4.62
2018-07-31T04:12:57.717Z,4.85
2018-07-31T04:18:01.341Z,4.55
2018-07-31T04:23:04.841Z,4.75
2018-07-31T04:28:08.273Z,4.62
2018-07-31T04:33:11.746Z,4.55
2018-07-31T04:38:15.369Z,4.50
2018-07-31T04:43:19.273Z,4.22
2018-07-31T04:48:22.813Z,4.72
2018-07-31T04:53:26.274Z,4.78
2018-07-31T04:58:29.897Z,4.95
2018-07-31T05:03:33.580Z,4.85
2018-07-31T05:08:37.033Z,4.42
2018-07-31T05:13:40.622Z,4.40
2018-07-31T05:18:44.089Z,4.60
2018-07-31T05:23:47.582Z,4.12
2018-07-31T05:28:51.057Z,4.83
2018-07-31T05:33:54.547Z,4.40
2018-07-31T05:38:58.081Z,4.55
2018-07-31T05:44:01.626Z,4.55
2018-07-31T05:49:05.633Z,4.58
2018-07-31T05:54:09.237Z,5.08
2018-07-31T05:59:13.014Z,4.83
2018-07-31T06:04:17.530Z,4.30
2018-07-31T06:09:20.969Z,4.40
2018-07-31T06:14:24.446Z,3.77
2018-07-31T06:19:27.937Z,3.95
2018-07-31T06:24:31.542Z,4.50
2018-07-31T06:29:35.175Z,3.75
2018-07-31T06:34:38.680Z,4.17
2018-07-31T06:39:42.292Z,3.65
2018-07-31T06:44:45.957Z,4.97
2018-07-31T06:49:49.729Z,4.67
2018-07-31T06:54:53.941Z,3.67
2018-07-31T06:59:57.453Z,4.05
2018-07-31T07:05:00.966Z,3.62
2018-07-31T07:10:05.057Z,3.98
2018-07-31T07:15:08.612Z,4.05
2018-07-31T07:20:12.158Z,4.30
2018-07-31T07:25:15.634Z,3.30
2018-07-31T07:30:19.226Z,3.83
2018-07-31T07:35:22.949Z,4.03
2018-07-31T07:40:26.557Z,3.90
2018-07-31T07:45:30.036Z,4.00
2018-07-31T07:50:34.110Z,3.75
2018-07-31T07:55:37.752Z,3.58
2018-07-31T08:00:42.034Z,3.50
2018-07-31T08:05:45.699Z,3.15
2018-07-31T08:10:49.609Z,3.15
2018-07-31T08:15:53.176Z,3.50
2018-07-31T08:20:56.842Z,3.17
2018-07-31T08:26:00.689Z,3.58
2018-07-31T08:31:04.236Z,3.25
2018-07-31T08:36:08.220Z,3.10
2018-07-31T08:41:11.765Z,3.20
2018-07-31T08:46:15.273Z,3.62
2018-07-31T08:51:18.879Z,3.20
2018-07-31T08:56:22.361Z,3.05
2018-07-31T09:01:26.067Z,3.02
2018-07-31T09:06:29.811Z,3.37
2018-07-31T09:11:33.276Z,3.50
2018-07-31T09:16:37.084Z,3.30
2018-07-31T09:21:40.665Z,3.75
2018-07-31T09:26:44.110Z,4.15
2018-07-31T09:31:47.593Z,3.87
2018-07-31T09:36:51.116Z,4.08
2018-07-31T09:41:54.612Z,4.15
2018-07-31T09:46:58.447Z,3.22
2018-07-31T09:52:01.936Z,3.58
2018-07-31T09:57:05.592Z,3.50
2018-07-31T10:02:09.112Z,3.87
2018-07-31T10:07:12.824Z,3.72
2018-07-31T10:12:16.421Z,3.77
2018-07-31T10:17:19.966Z,3.25
2018-07-31T10:22:23.513Z,3.85
2018-07-31T10:27:27.360Z,3.92
2018-07-31T10:32:31.333Z,3.37
2018-07-31T10:37:34.864Z,4.03
2018-07-31T10:42:38.438Z,3.30
2018-07-31T10:47:41.886Z,3.67
2018-07-31T10:52:45.324Z,3.83
2018-07-31T10:57:48.902Z,3.62
2018-07-31T11:02:52.567Z,3.27
2018-07-31T11:07:56.121Z,3.42
2018-07-31T11:12:59.615Z,2.90
2018-07-31T11:18:03.145Z,3.58
2018-07-31T11:23:06.889Z,3.05
2018-07-31T11:28:10.713Z,3.02
2018-07-31T11:33:14.932Z,3.40
2018-07-31T11:38:18.459Z,3.30
2018-07-31T11:43:22.489Z,3.80
2018-07-31T11:48:26.101Z,3.15
2018-07-31T11:53:29.606Z,3.35
2018-07-31T11:58:33.213Z,3.02
2018-07-31T12:03:36.856Z,2.95
2018-07-31T12:08:40.342Z,2.62
2018-07-31T12:13:43.887Z,3.02
2018-07-31T12:18:47.335Z,3.30
2018-07-31T12:23:50.794Z,2.92
2018-07-31T12:28:54.436Z,3.08
2018-07-31T12:33:58.192Z,3.20
2018-07-31T12:39:01.777Z,2.92
2018-07-31T12:44:05.687Z,2.87
2018-07-31T12:49:09.384Z,3.22
2018-07-31T12:54:12.922Z,2.98
2018-07-31T12:59:16.385Z,2.90
2018-07-31T13:04:20.129Z,2.87
2018-07-31T13:09:23.893Z,2.80
2018-07-31T13:14:27.499Z,3.00
2018-07-31T13:19:31.433Z,2.87
2018-07-31T13:24:35.049Z,2.70
2018-07-31T13:29:38.707Z,2.85
2018-07-31T13:34:42.181Z,2.77
2018-07-31T13:39:45.763Z,3.20
2018-07-31T13:44:49.758Z,2.90
2018-07-31T13:49:54.056Z,3.27
2018-07-31T13:54:57.703Z,2.50
2018-07-31T14:00:01.259Z,2.50
2018-07-31T14:05:05.162Z,2.58
2018-07-31T14:10:09.247Z,2.55
2018-07-31T14:15:12.869Z,2.74
2018-07-31T14:20:16.613Z,2.62
2018-07-31T14:25:21.228Z,2.57
2018-07-31T14:30:25.078Z,2.53
2018-07-31T14:35:29.022Z,2.45
2018-07-31T14:40:32.585Z,2.30
2018-07-31T14:45:36.112Z,2.37
2018-07-31T14:50:39.868Z,2.47
2018-07-31T14:55:43.444Z,2.42
2018-07-31T15:00:47.105Z,2.70
2018-07-31T15:05:50.594Z,2.58
2018-07-31T15:27:17.633Z,2.60
2018-07-31T15:32:21.480Z,2.52
2018-07-31T15:37:25.029Z,2.65
2018-07-31T15:42:28.781Z,2.35
2018-07-31T15:47:32.465Z,2.37
2018-07-31T15:52:36.329Z,2.30
2018-07-31T15:57:39.853Z,2.47
2018-07-31T16:02:43.329Z,2.45
2018-07-31T16:07:46.884Z,2.45
2018-07-31T16:12:50.490Z,2.10
2018-07-31T16:17:54.045Z,2.30
2018-07-31T16:22:57.561Z,2.15
2018-07-31T16:28:01.069Z,2.12
2018-07-31T16:33:04.814Z,2.00
2018-07-31T16:38:08.716Z,2.02
2018-07-31T16:43:12.509Z,2.17
2018-07-31T16:48:16.389Z,2.00
2018-07-31T16:53:20.079Z,1.62
2018-07-31T16:58:23.660Z,1.95
2018-07-31T17:03:28.036Z,1.90
2018-07-31T17:08:31.701Z,1.87
2018-07-31T17:13:35.681Z,1.92
2018-07-31T17:18:39.161Z,1.98
2018-07-31T17:23:42.914Z,1.80
2018-07-31T17:28:46.740Z,1.55
2018-07-31T17:33:50.533Z,2.10
2018-07-31T17:38:54.081Z,1.95
2018-07-31T17:43:57.645Z,2.17
2018-07-31T17:49:01.305Z,1.95
2018-07-31T17:54:05.166Z,2.10
2018-07-31T17:59:08.937Z,1.50
2018-07-31T18:04:12.777Z,1.98
2018-07-31T18:09:16.361Z,1.80
2018-07-31T18:14:19.900Z,2.05
2018-07-31T18:19:23.487Z,2.20
2018-07-31T18:24:27.014Z,1.57
2018-07-31T18:29:30.862Z,1.55
2018-07-31T18:34:34.635Z,1.70
2018-07-31T18:39:38.398Z,1.92
2018-07-31T18:44:42.352Z,2.10
2018-07-31T18:49:46.245Z,1.72
2018-07-31T18:54:49.972Z,1.50
2018-07-31T18:59:54.152Z,1.50
2018-07-31T19:04:57.707Z,1.87
2018-07-31T19:10:01.450Z,1.80
2018-07-31T19:15:05.586Z,1.62
2018-07-31T19:20:09.286Z,1.95
2018-07-31T19:25:12.840Z,2.10
2018-07-31T19:30:16.372Z,1.73
2018-07-31T19:35:19.814Z,1.77
2018-07-31T19:40:23.823Z,2.10
2018-07-31T19:45:27.461Z,2.62
2018-07-31T19:50:30.982Z,2.70
2018-07-31T19:55:34.611Z,1.92
2018-07-31T20:00:38.360Z,2.77
2018-07-31T20:05:42.070Z,2.60
2018-07-31T20:10:45.889Z,3.15
2018-07-31T20:15:49.597Z,2.62
2018-07-31T20:20:53.151Z,3.33
2018-07-31T20:25:56.820Z,3.37
2018-07-31T20:31:00.545Z,3.47
2018-07-31T20:36:04.141Z,3.35
2018-07-31T20:41:08.011Z,3.90
2018-07-31T20:46:12.245Z,3.17
2018-07-31T20:51:16.588Z,2.90
2018-07-31T21:12:43.906Z,3.12
2018-07-31T21:17:48.634Z,3.27
2018-07-31T21:22:52.839Z,3.35
2018-07-31T21:27:56.373Z,3.45
2018-07-31T21:32:59.921Z,3.62
2018-07-31T21:38:03.729Z,3.52
2018-07-31T21:43:07.338Z,3.90
2018-07-31T21:48:11.025Z,3.85
2018-07-31T21:53:14.482Z,3.42
2018-07-31T21:58:18.009Z,3.77
2018-07-31T22:03:21.883Z,4.08
2018-07-31T22:08:25.703Z,3.33
2018-07-31T22:13:30.301Z,3.72
2018-07-31T22:18:34.159Z,3.72
2018-07-31T22:23:37.658Z,3.85
2018-07-31T22:28:43.373Z,3.77
2018-07-31T22:33:47.021Z,4.30
2018-07-31T22:38:50.512Z,3.98
2018-07-31T22:43:54.090Z,4.75
2018-07-31T22:48:57.611Z,3.92
2018-07-31T22:54:01.130Z,4.42
2018-07-31T22:59:05.558Z,3.85
2018-07-31T23:04:09.386Z,4.28
2018-07-31T23:09:13.245Z,4.12
2018-07-31T23:14:16.748Z,3.90
2018-07-31T23:19:20.271Z,3.25
2018-07-31T23:24:23.861Z,4.17
2018-07-31T23:29:27.773Z,4.05
2018-07-31T23:34:31.250Z,3.15
2018-07-31T23:39:34.697Z,3.27
2018-07-31T23:44:38.417Z,3.90
2018-07-31T23:49:41.889Z,3.45
2018-07-31T23:54:45.567Z,3.27
2018-07-31T23:59:49.286Z,2.92
